Alfred Station, New York
Current Conditions -  °F | °C
As of 6:56 PM on Thursday 18 Dec 2014 (Local Time) from KELZ Reporting Station
Overcast Overcast  
Wind Chill: 19°   Ceiling: 900
Heat Index: 28°   Visibility: 10mi
Dew Point: 24°   Wind: 10mph
Humidity: 85%   Direction: 300°WNW
Pressure: 30.01"   Gusts: NA
Location:  42.27°N, 77.76°W
Report Text: KELZ 182356Z AUTO 30009KT 10SM BKN009 OVC017 M02/M04 A3001 RMK AO2 SLP190 60000 I1001 I6002 T10221044 11017 21022 51006
Loading
Personal Weather Stations






























Interactive Weather Map New forecast layout! Learn more

10-Day Weather Forecast

Advertisements
Track Severe Weather on mobile